• Join FlightAware (Why Join?)
  • Login
  • US Flag 
 
10:07PM EST


 

Airport Tracker/Info


-or-


 

Live Flight TrackerFlight Track Log ✈ ELJ75 ✈ 10-May-2013 ✈ KCHS - KTEB

Flight Track Log - Related Links

Times and Time Zones

All times are in EDT time to prevent confusion due to time zone crossing. See the ELJ75 flight status page for this flight to view local times or setup timezone preferences in your user account.

Time Position Orientation Groundspeed Altitude Reporting Facility
EDT Latitude Longitude Course Direction KTS MPH feet Rate Location/Type
03:04PM 32.9153 -79.9553 13° North 264 304 4,900  Level Jacksonville Center
03:05PM 32.9819 -79.9458 North 279 321 7,900 2,460 Climbing Jacksonville Center
03:06PM 33.0608 -79.9358 North 284 327 9,900 1,020 Climbing Jacksonville Center
03:07PM 33.1400 -79.9281 North 302 348 10,000 1,260 Climbing Jacksonville Center
03:08PM 33.2233 -79.9178 North 307 353 12,500 2,640 Climbing Jacksonville Center
03:09PM 33.4627 -79.8631 13° North  Level FlightAware Approximate
03:09PM 33.3086 -79.9078 North 307 353 15,300  Level Jacksonville Center
03:10PM 33.5599 -79.8353 13° North  Level FlightAware Approximate
03:10PM 33.3936 -79.8825 14° North 313 360 18,200  Level Jacksonville Center
03:11PM 33.4783 -79.8472 19° North 313 360 21,100 2,820 Climbing Jacksonville Center
03:12PM 33.5650 -79.8092 20° North 318 366 23,900 2,400 Climbing Jacksonville Center
03:13PM 33.6517 -79.7689 21° North 324 373 25,900 1,500 Climbing Jacksonville Center
03:14PM 33.7486 -79.7281 19° North 337 388 26,900 540 Climbing Jacksonville Center
03:15PM 33.8561 -79.6842 19° North 374 430 27,000  Climbing Jacksonville Center
03:16PM 33.9614 -79.6375 20° North 393 452 27,000  Level Jacksonville Center
03:17PM 34.0667 -79.5911 20° North 398 458 27,000  Level Jacksonville Center
03:18PM 34.1717 -79.5444 20° North 398 458 27,000  Level Jacksonville Center
03:21PM 34.4336 -79.4319 20° North 403 464 27,000  Level Washington Center
03:22PM 34.5417 -79.3789 22° Northeast 403 464 27,000  Level Washington Center
03:23PM 34.6494 -79.3333 19° North 403 464 27,000 60 Level Washington Center
03:24PM 34.7592 -79.2956 16° North 408 470 27,200 480 Climbing Washington Center
03:25PM 34.8694 -79.3081 355° North 402 463 28,000 360 Climbing Washington Center
03:26PM 34.9817 -79.3183 356° North 397 457 28,000 300 Level Washington Center
03:27PM 35.0919 -79.3286 356° North 397 457 28,700 480 Climbing Washington Center
03:28PM 35.2000 -79.3436 354° North 397 457 29,000 120 Climbing Washington Center
03:29PM 35.3228 -79.3569 355° North 402 463 29,000  Level Washington Center
03:30PM 35.4278 -79.3367 North 409 471 29,000  Level Washington Center
03:31PM 35.5406 -79.2628 28° Northeast 409 471 29,000  Level Washington Center
03:32PM 35.6281 -79.1953 32° Northeast 414 476 29,000  Level Washington Center
03:33PM 35.7328 -79.1156 32° Northeast 420 483 29,000  Level Washington Center
03:34PM 35.8439 -79.0308 32° Northeast 425 489 29,000  Level Washington Center
03:35PM 35.9483 -78.9531 31° Northeast 425 489 29,000  Level Washington Center
03:36PM 36.0528 -78.8703 33° Northeast 425 489 29,000  Level Washington Center
03:37PM 36.1528 -78.7947 31° Northeast 430 495 29,000  Level Washington Center
03:38PM 36.2572 -78.7164 31° Northeast 430 495 29,000  Level Washington Center
03:39PM 36.3614 -78.6356 32° Northeast 430 495 29,000  Level Washington Center
03:40PM 36.4636 -78.5542 33° Northeast 435 501 29,000  Level Washington Center
03:42PM 36.6639 -78.3806 35° Northeast 442 509 29,000  Level Washington Center
03:43PM 36.7642 -78.2908 36° Northeast 437 503 29,000  Level Washington Center
03:44PM 36.8642 -78.2036 35° Northeast 437 503 29,000  Level Washington Center
03:45PM 36.9642 -78.1158 35° Northeast 432 497 29,000  Level Washington Center
03:46PM 37.0619 -78.0281 36° Northeast 432 497 29,000  Level Washington Center
03:47PM 37.1594 -77.9400 36° Northeast 432 497 29,000  Level Washington Center
03:48PM 37.2592 -77.8517 35° Northeast 432 497 29,000  Level Washington Center
03:49PM 37.3589 -77.7658 34° Northeast 432 497 29,000  Level Washington Center
03:50PM 37.4564 -77.6769 36° Northeast 432 497 29,000  Level Washington Center
03:51PM 37.5558 -77.5906 35° Northeast 432 497 29,000  Level Washington Center
03:52PM 37.6556 -77.5014 35° Northeast 432 497 29,000  Level Washington Center
03:53PM 37.7550 -77.4094 36° Northeast 432 497 29,000  Level Washington Center
03:54PM 37.8522 -77.3197 36° Northeast 432 497 29,000  Level Washington Center
03:55PM 37.9494 -77.2297 36° Northeast 432 497 29,000 -60 Level Washington Center
03:56PM 38.0486 -77.1422 35° Northeast 432 497 28,900 -780 Descending Washington Center
03:57PM 38.1433 -77.0569 35° Northeast 427 491 27,500 -1,440 Descending Washington Center
03:58PM 38.2383 -76.9636 38° Northeast 427 491 26,100 -780 Descending Washington Center
03:59PM 38.3186 -76.8831 38° Northeast 427 491 26,000 -60 Descending Washington Center
04:00PM 38.4133 -76.7842 39° Northeast 420 483 26,000  Level Washington Center
04:01PM 38.5103 -76.6822 39° Northeast 433 498 26,000  Level Washington Center
04:02PM 38.6050 -76.5800 40° Northeast 438 504 26,000  Level Washington Center
04:03PM 38.7017 -76.4775 40° Northeast 443 510 26,000  Level Washington Center
04:04PM 38.8294 -76.3992 26° Northeast 453 521 26,000  Level Washington Center
04:05PM 38.9422 -76.3417 22° Northeast 448 516 26,000 -780 Level Washington Center
04:06PM 39.0572 -76.2839 21° North 442 509 24,500 -1,020 Descending Washington Center
04:07PM 39.1661 -76.2100 28° Northeast 432 497 24,000 -300 Descending Washington Center
04:08PM 39.2478 -76.1222 40° Northeast 433 498 24,000 -360 Level Washington Center
04:09PM 39.3397 -76.0289 38° Northeast 428 493 23,300 -960 Descending Washington Center
04:10PM 39.4381 -75.9356 36° Northeast 428 493 22,100 -1,500 Descending Washington Center
04:11PM 39.5342 -75.8417 37° Northeast 433 498 20,400 -2,520 Descending Washington Center
04:13PM 39.7167 -75.6667 36° Northeast 389 448 14,900 -2,640 Descending Philadelphia TRACON
04:14PM 39.7833 -75.6000 38° Northeast 368 423 13,100 -1,020 Descending Philadelphia TRACON
04:15PM 39.8833 -75.5167 33° Northeast 372 428 13,000 -60 Descending Philadelphia TRACON
04:16PM 39.9667 -75.4500 32° Northeast 377 434 13,000 -60 Level Philadelphia TRACON
04:17PM 40.0500 -75.3667 37° Northeast 380 437 12,900  Descending Philadelphia TRACON
04:18PM 40.1333 -75.2833 37° Northeast 375 432 13,000 -720 Climbing Philadelphia TRACON
04:19PM 40.2500 -75.1667 37° Northeast 316 364 11,100 -1,140 Descending New York TRACON
04:20PM 40.3333 -75.1000 31° Northeast 312 359 10,200 -1,500 Descending New York TRACON
04:21PM 40.3833 -75.0167 52° Northeast 304 350 8,200 -2,040 Descending New York TRACON
04:22PM 40.4500 -74.9500 37° Northeast 299 344 6,200 -1,920 Descending New York TRACON
04:23PM 40.5000 -74.8667 52° Northeast 286 329 4,400 -1,140 Descending New York TRACON
04:24PM 40.5500 -74.8000 45° Northeast 270 311 4,000 -240 Descending New York TRACON
04:25PM 40.6167 -74.7500 30° Northeast 274 315 4,000  Level New York TRACON
04:26PM 40.6833 -74.7167 21° North 269 310 4,000  Level New York TRACON
04:27PM 40.7333 -74.6667 37° Northeast 272 313 4,000 -300 Level New York TRACON
04:28PM 40.7833 -74.5833 52° Northeast 264 304 3,400 -540 Descending New York TRACON
04:29PM 40.8333 -74.5167 45° Northeast 263 303 3,000 -240 Descending New York TRACON
04:30PM 40.8833 -74.4500 45° Northeast 268 308 3,000  Level New York TRACON
04:31PM 40.9333 -74.3667 52° Northeast 270 311 3,000  Level New York TRACON
04:32PM 40.9667 -74.2833 62° Northeast 262 302 3,000 -360 Level New York TRACON
04:34PM 41.0167 -74.1000 70° East 266 306 2,000 -360 Descending New York TRACON
04:35PM 40.9500 -74.0500 150° Southeast 224 258 2,000 -420 Level New York TRACON
04:36PM 40.9167 -74.0500 180° South 155 178 1,200 -780 Descending New York TRACON
04:37PM 40.8833 -74.0500 180° South 106 122 600 -600 Descending New York TRACON
04:39PM 40.8500 -74.0500 180° South  Level FlightAware Approximate
04:46PM 40.8501 -74.0608 180° South  Level Estimated
04:47PM 40.8501 -74.0608 180° South  Level Estimated